createdAt,value
2023-05-05T00:01:01.087Z,48.00
2023-05-05T00:03:29.415Z,51.00
2023-05-05T00:05:58.142Z,50.00
2023-05-05T00:08:26.246Z,47.00
2023-05-05T00:10:54.228Z,52.00
2023-05-05T00:13:22.128Z,52.00
2023-05-05T00:15:53.610Z,52.00
2023-05-05T00:20:49.872Z,44.00
2023-05-05T00:23:19.674Z,52.00
2023-05-05T00:25:48.045Z,54.00
2023-05-05T00:28:16.212Z,53.00
2023-05-05T00:30:44.197Z,58.00
2023-05-05T00:38:08.714Z,51.00
2023-05-05T00:40:38.003Z,52.00
2023-05-05T00:43:06.180Z,43.50
2023-05-05T00:45:34.147Z,57.00
2023-05-05T00:48:06.733Z,150.00
2023-05-05T00:53:04.574Z,178.50
2023-05-05T00:55:33.610Z,177.50
2023-05-05T00:58:02.811Z,155.00
2023-05-05T01:00:30.957Z,177.00
2023-05-05T01:05:33.268Z,88.00
2023-05-05T01:08:13.693Z,90.00
2023-05-05T01:10:46.622Z,71.50
2023-05-05T01:13:30.454Z,66.00
2023-05-05T01:16:01.807Z,58.00
2023-05-05T01:18:31.307Z,54.00
2023-05-05T01:21:17.718Z,52.00
2023-05-05T01:24:08.707Z,48.00
2023-05-05T01:26:49.247Z,49.00
2023-05-05T01:29:58.508Z,46.00
2023-05-05T01:32:29.343Z,51.50
2023-05-05T01:35:04.213Z,56.00
2023-05-05T01:37:39.033Z,52.00
2023-05-05T01:40:10.722Z,57.00
2023-05-05T01:45:08.244Z,56.00
2023-05-05T01:47:36.281Z,56.00
2023-05-05T01:50:05.189Z,60.00
2023-05-05T01:52:33.552Z,55.00
2023-05-05T01:55:02.581Z,57.00
2023-05-05T01:57:31.394Z,57.00
2023-05-05T01:59:59.414Z,61.00
2023-05-05T02:02:30.560Z,55.00
2023-05-05T02:04:58.661Z,60.00
2023-05-05T02:09:55.687Z,63.00
2023-05-05T02:12:24.086Z,59.00
2023-05-05T02:14:51.908Z,60.00
2023-05-05T02:17:19.778Z,56.00
2023-05-05T02:19:49.823Z,54.00
2023-05-05T02:24:45.960Z,56.00
2023-05-05T02:27:14.645Z,59.00
2023-05-05T02:29:48.453Z,55.00
2023-05-05T02:32:40.098Z,58.00
2023-05-05T02:35:15.625Z,47.00
2023-05-05T02:42:42.218Z,58.00
2023-05-05T02:47:42.299Z,52.50
2023-05-05T02:50:11.580Z,54.00
2023-05-05T02:52:42.762Z,53.00
2023-05-05T02:55:11.433Z,58.00
2023-05-05T02:57:53.913Z,54.50
2023-05-05T03:00:38.697Z,54.00
2023-05-05T03:03:07.650Z,57.00
2023-05-05T03:05:41.231Z,52.50
2023-05-05T03:08:10.279Z,52.00
2023-05-05T03:13:13.486Z,54.00
2023-05-05T03:15:48.522Z,51.50
2023-05-05T03:18:18.776Z,52.00
2023-05-05T03:23:22.764Z,53.00
2023-05-05T03:25:53.992Z,54.50
2023-05-05T03:28:34.696Z,44.00
2023-05-05T03:31:06.366Z,46.50
2023-05-05T03:33:35.564Z,52.50
2023-05-05T03:36:04.124Z,54.00
2023-05-05T03:38:32.230Z,42.50
2023-05-05T03:41:03.705Z,44.00
2023-05-05T03:43:32.228Z,43.00
2023-05-05T03:46:00.620Z,41.00
2023-05-05T03:48:29.521Z,38.00
2023-05-05T03:50:57.421Z,41.00
2023-05-05T03:53:26.539Z,49.00
2023-05-05T03:55:55.532Z,36.50
2023-05-05T03:58:23.503Z,34.00
2023-05-05T04:00:51.693Z,36.00
2023-05-05T04:03:20.150Z,35.00
2023-05-05T04:05:48.981Z,35.00
2023-05-05T04:08:17.098Z,48.00
2023-05-05T04:10:45.953Z,43.00
2023-05-05T04:13:14.301Z,45.00
2023-05-05T04:15:46.292Z,43.00
2023-05-05T04:18:14.461Z,50.50
2023-05-05T04:20:42.502Z,45.00
2023-05-05T04:23:11.006Z,43.00
2023-05-05T04:28:07.308Z,56.00
2023-05-05T04:30:35.314Z,51.50
2023-05-05T04:33:03.752Z,55.00
2023-05-05T04:35:31.985Z,64.00
2023-05-05T04:38:00.018Z,78.00
2023-05-05T04:45:27.005Z,62.50
2023-05-05T04:47:55.943Z,65.00
2023-05-05T04:50:24.096Z,67.00
2023-05-05T04:55:21.318Z,66.50
2023-05-05T04:57:49.164Z,73.00
2023-05-05T05:00:17.845Z,68.00
2023-05-05T05:02:45.998Z,68.00
2023-05-05T05:05:14.287Z,65.00
2023-05-05T05:07:42.317Z,69.00
2023-05-05T05:12:39.392Z,70.00
2023-05-05T05:15:08.358Z,72.50
2023-05-05T05:17:36.365Z,67.00
2023-05-05T05:20:05.107Z,74.50
2023-05-05T05:22:33.269Z,66.00
2023-05-05T05:25:02.408Z,67.50
2023-05-05T05:30:45.316Z,59.00
2023-05-05T05:33:14.750Z,55.00
2023-05-05T05:35:43.264Z,50.50
2023-05-05T05:38:11.694Z,54.00
2023-05-05T05:40:39.731Z,52.00
2023-05-05T05:43:07.866Z,51.00
2023-05-05T05:45:36.489Z,51.00
2023-05-05T05:48:05.619Z,56.00
2023-05-05T05:50:33.679Z,55.00
2023-05-05T05:53:01.943Z,51.00
2023-05-05T05:55:30.143Z,48.50
2023-05-05T05:57:58.179Z,56.00
2023-05-05T06:00:26.438Z,57.00
2023-05-05T06:05:27.581Z,62.00
2023-05-05T06:07:55.773Z,59.50
2023-05-05T06:10:27.607Z,67.00
2023-05-05T06:13:01.296Z,70.00
2023-05-05T06:15:30.377Z,65.00
2023-05-05T06:17:58.665Z,69.00
2023-05-05T06:20:27.658Z,61.00
2023-05-05T06:22:55.772Z,67.00
2023-05-05T06:25:24.563Z,59.00
2023-05-05T06:27:53.109Z,60.00
2023-05-05T06:30:20.956Z,60.00
2023-05-05T06:32:49.262Z,63.00
2023-05-05T06:35:17.452Z,58.50
2023-05-05T06:37:45.733Z,65.00
2023-05-05T06:40:13.598Z,59.00
2023-05-05T06:42:41.891Z,55.00
2023-05-05T06:45:11.601Z,52.00
2023-05-05T06:47:42.237Z,46.50
2023-05-05T06:50:10.772Z,50.00
2023-05-05T06:52:38.937Z,50.00
2023-05-05T06:55:07.303Z,47.00
2023-05-05T07:00:06.078Z,47.00
2023-05-05T07:02:34.234Z,39.00
2023-05-05T07:05:02.341Z,38.00
2023-05-05T07:07:31.807Z,41.00
2023-05-05T07:10:00.055Z,39.00
2023-05-05T07:12:29.279Z,42.50
2023-05-05T07:14:57.432Z,38.00
2023-05-05T07:17:25.336Z,39.50
2023-05-05T07:19:55.029Z,41.00
2023-05-05T07:22:22.832Z,37.00
2023-05-05T07:24:53.437Z,34.50
2023-05-05T07:27:22.527Z,36.00
2023-05-05T07:29:51.310Z,36.00
2023-05-05T07:32:19.396Z,39.00
2023-05-05T07:34:47.395Z,36.00
2023-05-05T07:37:15.333Z,38.00
2023-05-05T07:39:43.290Z,40.00
2023-05-05T07:42:11.489Z,41.00
2023-05-05T07:44:39.408Z,41.00
2023-05-05T07:47:07.307Z,42.50
2023-05-05T07:49:36.619Z,45.50
2023-05-05T07:52:05.044Z,37.50
2023-05-05T07:54:32.977Z,32.50
2023-05-05T07:57:01.905Z,34.00
2023-05-05T07:59:29.863Z,33.00
2023-05-05T08:01:57.756Z,34.00
2023-05-05T08:04:25.671Z,36.00
2023-05-05T08:06:53.604Z,32.50
2023-05-05T08:09:21.520Z,37.00
2023-05-05T08:11:49.538Z,31.00
2023-05-05T08:14:17.406Z,31.00
2023-05-05T08:16:45.302Z,30.50
2023-05-05T08:19:27.672Z,26.00
2023-05-05T08:21:56.593Z,38.00
2023-05-05T08:24:24.451Z,39.00
2023-05-05T08:29:20.064Z,35.00
2023-05-05T08:31:48.063Z,36.00
2023-05-05T08:34:16.106Z,35.00
2023-05-05T08:36:43.949Z,35.00
2023-05-05T08:39:12.047Z,45.00
2023-05-05T08:41:39.967Z,42.00
2023-05-05T08:44:08.387Z,45.00
2023-05-05T08:46:36.842Z,36.00
2023-05-05T08:49:05.782Z,44.00
2023-05-05T08:51:38.571Z,44.00
2023-05-05T08:56:38.417Z,33.50
2023-05-05T08:59:06.274Z,37.00
2023-05-05T09:01:34.362Z,38.00
2023-05-05T09:04:04.072Z,35.00
2023-05-05T09:06:33.889Z,35.00
2023-05-05T09:09:01.983Z,30.00
2023-05-05T09:11:29.846Z,35.50
2023-05-05T09:13:57.644Z,33.00
2023-05-05T09:16:25.677Z,31.50
2023-05-05T09:19:11.539Z,37.00
2023-05-05T09:21:46.790Z,34.00
2023-05-05T09:24:15.701Z,30.50
2023-05-05T09:26:45.162Z,35.00
2023-05-05T09:29:20.067Z,38.00
2023-05-05T09:32:08.894Z,36.00
2023-05-05T09:34:37.526Z,34.00
2023-05-05T09:37:06.230Z,38.00
2023-05-05T09:39:34.401Z,42.00
2023-05-05T09:42:02.997Z,39.00
2023-05-05T09:44:35.699Z,35.00
2023-05-05T09:47:07.153Z,33.00
2023-05-05T09:49:40.071Z,38.00
2023-05-05T09:52:16.632Z,38.67
2023-05-05T09:54:44.803Z,36.00
2023-05-05T09:57:38.785Z,36.50
2023-05-05T10:00:08.197Z,35.50
2023-05-05T10:02:38.424Z,36.67
2023-05-05T10:05:10.224Z,39.00
2023-05-05T10:07:40.368Z,36.00
2023-05-05T10:10:12.341Z,44.50
2023-05-05T10:12:40.567Z,45.00
2023-05-05T10:15:10.041Z,40.00
2023-05-05T10:20:36.312Z,42.50
2023-05-05T10:23:06.397Z,37.00
2023-05-05T10:25:42.687Z,40.00
2023-05-05T10:28:10.665Z,39.50
2023-05-05T10:30:42.297Z,31.00
2023-05-05T10:35:55.686Z,38.00
2023-05-05T10:38:24.800Z,35.00
2023-05-05T10:40:54.919Z,35.00
2023-05-05T10:45:50.622Z,28.00
2023-05-05T10:48:33.375Z,28.50
2023-05-05T10:51:39.344Z,32.50
2023-05-05T10:54:14.074Z,39.50
2023-05-05T10:56:42.052Z,45.00
2023-05-05T10:59:38.111Z,27.00
2023-05-05T11:02:28.516Z,30.00
2023-05-05T11:05:14.478Z,27.00
2023-05-05T11:07:43.347Z,25.00
2023-05-05T11:10:12.606Z,25.00
2023-05-05T11:13:10.152Z,22.00
2023-05-05T11:15:38.339Z,25.00
2023-05-05T11:18:08.289Z,30.00
2023-05-05T11:20:43.727Z,28.00
2023-05-05T11:23:12.942Z,23.00
2023-05-05T11:25:45.377Z,29.00
2023-05-05T11:28:18.095Z,23.00
2023-05-05T11:31:06.185Z,31.00
2023-05-05T11:33:38.290Z,26.50
2023-05-05T11:36:07.650Z,27.00
2023-05-05T11:38:50.821Z,27.50
2023-05-05T11:44:11.063Z,27.00
2023-05-05T11:47:05.001Z,35.50
2023-05-05T11:49:33.707Z,24.50
2023-05-05T11:52:05.907Z,26.50
2023-05-05T11:54:35.374Z,32.00
2023-05-05T11:57:05.596Z,27.00
2023-05-05T11:59:34.037Z,27.00
2023-05-05T12:02:03.271Z,24.50
2023-05-05T12:04:32.031Z,31.00
2023-05-05T12:09:27.822Z,28.00
2023-05-05T12:11:58.836Z,27.00
2023-05-05T12:14:26.775Z,29.00
2023-05-05T12:16:58.722Z,28.00
2023-05-05T12:19:33.318Z,27.50
2023-05-05T12:22:02.139Z,31.00
2023-05-05T12:24:30.543Z,28.00
2023-05-05T12:27:08.533Z,33.00
2023-05-05T12:29:36.391Z,28.00
2023-05-05T12:32:04.640Z,27.00
2023-05-05T12:34:32.721Z,29.50
2023-05-05T12:37:01.011Z,28.00
2023-05-05T12:39:38.449Z,22.00
2023-05-05T12:42:06.654Z,29.00
2023-05-05T12:44:36.326Z,30.00
2023-05-05T12:47:04.995Z,25.50
2023-05-05T12:49:48.498Z,27.00
2023-05-05T12:52:16.522Z,28.00
2023-05-05T12:54:55.084Z,28.50
2023-05-05T12:57:23.354Z,25.00
2023-05-05T12:59:52.790Z,29.00
2023-05-05T13:02:21.054Z,27.00
2023-05-05T13:07:19.276Z,30.50
2023-05-05T13:09:50.475Z,27.50
2023-05-05T13:12:18.589Z,27.50
2023-05-05T13:14:46.829Z,25.00
2023-05-05T13:17:14.932Z,26.00
2023-05-05T13:19:46.127Z,24.00
2023-05-05T13:22:14.313Z,26.00
2023-05-05T13:24:51.541Z,28.00
2023-05-05T13:27:20.666Z,25.50
2023-05-05T13:29:48.713Z,33.00
2023-05-05T13:32:16.677Z,22.00
2023-05-05T13:34:44.791Z,25.50
2023-05-05T13:37:12.645Z,26.00
2023-05-05T13:39:40.669Z,25.00
2023-05-05T13:42:08.809Z,23.50
2023-05-05T13:44:36.790Z,20.50
2023-05-05T13:47:04.870Z,25.00
2023-05-05T13:49:32.830Z,23.00
2023-05-05T13:52:00.722Z,25.00
2023-05-05T13:54:28.668Z,26.00
2023-05-05T13:56:57.947Z,27.50
2023-05-05T13:59:25.937Z,30.00
2023-05-05T14:01:54.014Z,24.00
2023-05-05T14:04:21.990Z,26.50
2023-05-05T14:06:49.898Z,21.50
2023-05-05T14:09:17.878Z,20.00
2023-05-05T14:11:45.869Z,25.00
2023-05-05T14:14:13.840Z,25.00
2023-05-05T14:16:41.709Z,17.00
2023-05-05T14:21:37.470Z,24.50
2023-05-05T14:24:06.344Z,19.00
2023-05-05T14:26:34.189Z,27.00
2023-05-05T14:29:02.261Z,21.50
2023-05-05T14:31:30.363Z,17.00
2023-05-05T14:33:58.496Z,15.00
2023-05-05T14:36:27.084Z,15.50
2023-05-05T14:38:55.111Z,15.00
2023-05-05T14:43:51.193Z,16.00
2023-05-05T14:46:19.105Z,16.00
2023-05-05T14:48:47.466Z,17.00
2023-05-05T14:51:16.050Z,20.00
2023-05-05T14:53:44.196Z,14.50
2023-05-05T14:56:12.167Z,15.50
2023-05-05T14:58:40.519Z,14.00
2023-05-05T15:01:08.490Z,15.00
2023-05-05T15:03:36.463Z,13.00
2023-05-05T15:06:05.693Z,17.00
2023-05-05T15:08:33.856Z,18.00
2023-05-05T15:11:01.917Z,15.00
2023-05-05T15:18:26.297Z,21.00
2023-05-05T15:20:54.229Z,15.00
2023-05-05T15:23:22.177Z,15.00
2023-05-05T15:25:50.301Z,17.50
2023-05-05T15:28:18.827Z,15.67
2023-05-05T15:30:46.892Z,19.00
2023-05-05T15:33:14.861Z,15.00
2023-05-05T15:35:43.085Z,18.00
2023-05-05T15:38:11.009Z,18.50
2023-05-05T15:40:39.105Z,16.50
2023-05-05T15:43:07.056Z,18.00
2023-05-05T15:45:35.215Z,18.00
2023-05-05T15:48:03.132Z,17.00
2023-05-05T15:50:31.058Z,17.00
2023-05-05T15:52:59.122Z,22.00
2023-05-05T15:55:27.357Z,19.00
2023-05-05T15:57:55.575Z,18.00
2023-05-05T16:00:23.751Z,17.00
2023-05-05T16:02:51.733Z,20.50
2023-05-05T16:05:22.105Z,19.00
2023-05-05T16:07:51.843Z,18.00
2023-05-05T16:10:21.190Z,18.00
2023-05-05T16:12:49.273Z,19.00
2023-05-05T16:15:17.707Z,23.00
2023-05-05T16:17:45.834Z,20.00
2023-05-05T16:20:13.763Z,18.00
2023-05-05T16:22:41.659Z,20.50
2023-05-05T16:25:09.779Z,19.50
2023-05-05T16:27:38.153Z,22.50
2023-05-05T16:32:35.232Z,19.00
2023-05-05T16:35:03.170Z,19.00
2023-05-05T16:37:31.061Z,20.00
2023-05-05T16:42:27.133Z,20.00
2023-05-05T16:44:55.314Z,18.00
2023-05-05T16:47:23.412Z,16.00
2023-05-05T16:49:52.631Z,17.00
2023-05-05T16:52:20.583Z,19.00
2023-05-05T16:57:23.744Z,24.00
2023-05-05T16:59:55.095Z,21.00
2023-05-05T17:02:23.113Z,23.00
2023-05-05T17:04:51.103Z,28.00
2023-05-05T17:07:19.036Z,34.00
2023-05-05T17:09:47.018Z,31.00
2023-05-05T17:12:14.960Z,34.00
2023-05-05T17:14:43.111Z,34.00
2023-05-05T17:17:11.220Z,20.00
2023-05-05T17:22:07.503Z,19.00
2023-05-05T17:27:03.973Z,24.00
2023-05-05T17:29:32.751Z,24.00
2023-05-05T17:32:00.830Z,24.50
2023-05-05T17:34:28.753Z,25.50
2023-05-05T17:36:56.843Z,19.50
2023-05-05T17:39:25.009Z,22.33
2023-05-05T17:41:52.851Z,24.00
2023-05-05T17:44:21.574Z,26.00
2023-05-05T17:46:49.639Z,25.00
2023-05-05T17:49:17.574Z,29.00
2023-05-05T17:51:45.692Z,31.50
2023-05-05T17:54:13.533Z,26.00
2023-05-05T17:56:41.499Z,27.00
2023-05-05T17:59:09.393Z,36.00
2023-05-05T18:04:05.377Z,35.00
2023-05-05T18:06:33.420Z,31.50
2023-05-05T18:09:01.290Z,43.00
2023-05-05T18:11:31.087Z,43.00
2023-05-05T18:13:59.074Z,37.00
2023-05-05T18:16:26.866Z,51.00
2023-05-05T18:18:54.784Z,57.00
2023-05-05T18:21:22.730Z,60.00
2023-05-05T18:23:50.815Z,58.50
2023-05-05T18:26:18.562Z,53.50
2023-05-05T18:28:46.549Z,55.00
2023-05-05T18:31:15.023Z,66.00
2023-05-05T18:33:43.571Z,63.00
2023-05-05T18:36:12.495Z,62.67
2023-05-05T18:38:40.459Z,49.00
2023-05-05T18:44:22.816Z,58.00
2023-05-05T18:46:51.434Z,53.00
2023-05-05T18:49:19.364Z,51.50
2023-05-05T18:51:47.252Z,54.00
2023-05-05T18:54:15.226Z,54.00
2023-05-05T18:56:43.045Z,52.50
2023-05-05T18:59:11.148Z,56.00
2023-05-05T19:01:39.228Z,56.00
2023-05-05T19:04:15.593Z,60.00
2023-05-05T19:06:52.533Z,56.00
2023-05-05T19:09:21.008Z,55.00
2023-05-05T19:11:48.984Z,58.00
2023-05-05T19:14:17.813Z,63.00
2023-05-05T19:16:46.105Z,86.75
2023-05-05T19:19:14.072Z,87.67
2023-05-05T19:21:41.958Z,73.50
2023-05-05T19:24:09.849Z,61.00
2023-05-05T19:26:37.921Z,63.00
2023-05-05T19:29:05.777Z,88.50
2023-05-05T19:31:33.731Z,184.50
2023-05-05T19:34:02.960Z,137.00
2023-05-05T19:36:31.820Z,95.00
2023-05-05T19:39:01.841Z,97.00
2023-05-05T19:41:30.886Z,121.00
2023-05-05T19:43:58.872Z,236.00
2023-05-05T19:46:26.951Z,287.00
2023-05-05T19:48:54.903Z,224.00
2023-05-05T19:51:23.041Z,96.00
2023-05-05T19:53:50.974Z,78.50
2023-05-05T19:56:18.958Z,75.50
2023-05-05T19:58:54.066Z,88.00
2023-05-05T20:01:22.007Z,78.00
2023-05-05T20:03:51.290Z,189.00
2023-05-05T20:06:19.389Z,233.00
2023-05-05T20:08:49.774Z,222.00
2023-05-05T20:11:19.726Z,290.50
2023-05-05T20:13:47.879Z,329.00
2023-05-05T20:16:18.016Z,321.00
2023-05-05T20:18:48.719Z,388.50
2023-05-05T20:21:17.080Z,304.50
2023-05-05T20:23:45.834Z,168.00
2023-05-05T20:26:16.251Z,96.00
2023-05-05T20:28:45.896Z,72.00
2023-05-05T20:31:14.712Z,92.00
2023-05-05T20:33:42.620Z,69.00
2023-05-05T20:36:11.454Z,57.00
2023-05-05T20:41:11.616Z,64.00
2023-05-05T20:43:39.681Z,65.50
2023-05-05T20:46:13.410Z,68.00
2023-05-05T20:48:43.909Z,70.00
2023-05-05T20:51:11.784Z,84.00
2023-05-05T20:53:39.700Z,80.00
2023-05-05T20:56:08.944Z,68.00
2023-05-05T20:58:37.589Z,61.00
2023-05-05T21:01:05.574Z,55.00
2023-05-05T21:03:35.998Z,56.00
2023-05-05T21:06:04.747Z,54.00
2023-05-05T21:08:35.099Z,55.00
2023-05-05T21:11:03.133Z,47.00
2023-05-05T21:13:32.042Z,50.00
2023-05-05T21:16:00.751Z,59.00
2023-05-05T21:18:28.626Z,63.00
2023-05-05T21:20:56.582Z,57.00
2023-05-05T21:23:24.570Z,56.50
2023-05-05T21:25:52.607Z,58.00
2023-05-05T21:28:20.529Z,55.00
2023-05-05T21:31:10.182Z,70.33
2023-05-05T21:33:38.871Z,66.00
2023-05-05T21:36:06.925Z,54.50
2023-05-05T21:38:36.877Z,58.00
2023-05-05T21:41:04.841Z,58.00
2023-05-05T21:43:32.677Z,61.00
2023-05-05T21:46:04.432Z,59.00
2023-05-05T21:48:32.794Z,53.50
2023-05-05T21:51:01.155Z,58.50
2023-05-05T21:53:28.976Z,59.00
2023-05-05T21:55:56.982Z,57.00
2023-05-05T21:58:25.229Z,54.00
2023-05-05T22:00:53.255Z,59.00
2023-05-05T22:03:21.374Z,53.50
2023-05-05T22:05:49.513Z,56.50
2023-05-05T22:08:17.940Z,59.00
2023-05-05T22:10:46.374Z,63.00
2023-05-05T22:13:14.821Z,66.00
2023-05-05T22:15:47.214Z,60.00
2023-05-05T22:18:15.907Z,54.00
2023-05-05T22:20:44.118Z,57.00
2023-05-05T22:23:12.060Z,60.00
2023-05-05T22:25:40.127Z,54.00
2023-05-05T22:28:08.099Z,54.00
2023-05-05T22:30:36.272Z,57.00
2023-05-05T22:33:04.382Z,55.00
2023-05-05T22:35:32.606Z,56.50
2023-05-05T22:38:00.594Z,53.00
2023-05-05T22:40:28.541Z,56.00
2023-05-05T22:42:56.388Z,57.67
2023-05-05T22:45:24.308Z,56.00
2023-05-05T22:47:52.516Z,53.00
2023-05-05T22:50:20.375Z,54.00
2023-05-05T22:52:48.383Z,57.00
2023-05-05T22:55:16.566Z,57.00
2023-05-05T22:57:44.429Z,61.00
2023-05-05T23:00:12.619Z,57.00
2023-05-05T23:02:40.837Z,56.00
2023-05-05T23:05:09.459Z,57.00
2023-05-05T23:07:37.699Z,61.50
2023-05-05T23:10:06.494Z,57.00
2023-05-05T23:12:34.467Z,65.00
2023-05-05T23:17:30.114Z,66.00
2023-05-05T23:19:58.115Z,63.00
2023-05-05T23:22:26.033Z,63.50
2023-05-05T23:24:54.025Z,67.00
2023-05-05T23:27:23.101Z,62.00
2023-05-05T23:29:51.032Z,63.00
2023-05-05T23:32:19.359Z,57.00
2023-05-05T23:34:47.187Z,62.00
2023-05-05T23:37:14.976Z,61.00
2023-05-05T23:39:42.976Z,57.00
2023-05-05T23:42:10.919Z,59.50
2023-05-05T23:44:38.788Z,62.00
2023-05-05T23:47:06.968Z,61.00
2023-05-05T23:49:34.690Z,58.00
2023-05-05T23:52:03.326Z,55.00
2023-05-05T23:54:31.263Z,62.00
2023-05-05T23:57:00.331Z,56.00
2023-05-05T23:59:28.287Z,58.50
